Time;durP1;ratioP1;P1;durP2;ratioP2;P2;SDS_P1;SDS_P2;PMS_P1;PMS_P2;Temp;Humidity;BMP_temperature;BMP_pressure;BME280_temperature;BME280_humidity;BME280_pressure;Samples;Min_cycle;Max_cycle;Signal;HPM_P1;HPM_P2
2023/12/10 00:00:06;;;;;;;14.83;4.47;;;12.60;99.90;;;;;;4970375;28;20202;-78
2023/12/10 00:02:32;;;;;;;30.37;5.70;;;12.70;99.90;;;;;;4972724;28;21251;-78
2023/12/10 00:04:58;;;;;;;15.93;4.10;;;12.70;99.90;;;;;;4973624;28;20621;-78
2023/12/10 00:07:24;;;;;;;24.07;4.33;;;12.60;99.90;;;;;;4971616;28;21168;-78
2023/12/10 00:09:50;;;;;;;18.80;5.13;;;12.60;99.90;;;;;;4954129;28;20180;-77
2023/12/10 00:12:16;;;;;;;17.90;4.50;;;12.60;99.90;;;;;;4970239;28;20972;-77
2023/12/10 00:14:42;;;;;;;19.47;3.93;;;12.60;99.90;;;;;;4977354;28;20585;-77
2023/12/10 00:17:08;;;;;;;26.37;5.20;;;12.60;99.90;;;;;;4977643;28;20653;-77
2023/12/10 00:19:34;;;;;;;17.13;4.27;;;12.60;99.90;;;;;;4990539;28;20302;-78
2023/12/10 00:22:00;;;;;;;23.30;4.50;;;12.60;99.90;;;;;;4970136;28;20196;-78
2023/12/10 00:24:26;;;;;;;18.87;5.00;;;12.60;99.90;;;;;;4969934;28;20267;-77
2023/12/10 00:26:52;;;;;;;20.43;5.23;;;12.60;99.90;;;;;;4982943;28;20582;-77
2023/12/10 00:29:18;;;;;;;12.50;3.70;;;12.60;99.90;;;;;;4970662;28;20657;-77
2023/12/10 00:31:44;;;;;;;17.90;4.30;;;12.60;99.90;;;;;;4969650;28;20176;-77
2023/12/10 00:34:10;;;;;;;21.17;4.17;;;12.60;99.90;;;;;;4986752;28;20183;-77
2023/12/10 00:36:36;;;;;;;18.03;4.60;;;12.70;99.90;;;;;;4972819;28;20570;-77
2023/12/10 00:39:05;;;;;;;17.13;4.27;;;12.70;99.90;;;;;;4990516;28;20634;-77
2023/12/10 00:41:31;;;;;;;16.27;5.07;;;12.70;99.90;;;;;;4965130;28;21032;-77
2023/12/10 00:43:57;;;;;;;18.17;4.90;;;12.70;99.90;;;;;;4983625;28;20628;-77
2023/12/10 00:46:23;;;;;;;17.57;4.50;;;12.70;99.90;;;;;;4972997;28;21158;-77
2023/12/10 00:48:48;;;;;;;16.90;4.20;;;12.70;99.90;;;;;;4977602;28;20240;-77
2023/12/10 00:51:21;;;;;;;22.00;6.00;;;12.70;99.90;;;;;;4976865;28;20187;-76
2023/12/10 00:53:48;;;;;;;16.63;4.27;;;12.70;99.90;;;;;;4971526;28;20568;-77
2023/12/10 00:56:13;;;;;;;21.93;4.53;;;12.70;99.90;;;;;;4969517;28;21135;-77
2023/12/10 00:58:39;;;;;;;14.73;3.50;;;12.70;99.90;;;;;;4997869;28;20649;-77
2023/12/10 01:01:07;;;;;;;23.87;4.23;;;12.70;99.90;;;;;;4997574;28;20578;-77
2023/12/10 01:03:33;;;;;;;26.87;5.00;;;12.80;99.90;;;;;;4992393;28;20618;-77
2023/12/10 01:05:59;;;;;;;15.23;3.53;;;12.80;99.90;;;;;;5017417;28;20587;-77
2023/12/10 01:08:25;;;;;;;19.83;5.67;;;12.80;99.90;;;;;;4971855;28;21146;-77
2023/12/10 01:10:50;;;;;;;15.67;3.53;;;12.80;99.90;;;;;;4982326;28;20578;-77
2023/12/10 01:13:16;;;;;;;14.50;3.40;;;12.80;99.90;;;;;;4969004;28;20219;-77
2023/12/10 01:15:42;;;;;;;31.00;6.60;;;12.80;99.90;;;;;;4998187;28;20667;-77
2023/12/10 01:18:08;;;;;;;15.53;4.30;;;12.80;99.90;;;;;;4996911;28;20205;-78
2023/12/10 01:20:34;;;;;;;19.33;4.37;;;12.80;99.90;;;;;;4972501;28;20172;-77
2023/12/10 01:23:03;;;;;;;19.00;4.35;;;12.80;99.90;;;;;;4972377;28;20210;-77
2023/12/10 01:25:28;;;;;;;14.50;4.00;;;12.80;99.90;;;;;;4947837;28;20263;-77
2023/12/10 01:27:54;;;;;;;13.13;3.37;;;12.80;99.90;;;;;;4989872;28;20673;-77
2023/12/10 01:30:23;;;;;;;23.90;4.77;;;12.80;99.90;;;;;;4980242;28;20628;-77
2023/12/10 01:32:58;;;;;;;20.57;5.83;;;12.80;99.90;;;;;;4989153;28;20656;-77
2023/12/10 01:35:25;;;;;;;18.33;4.13;;;12.80;99.90;;;;;;4997720;28;20596;-77
2023/12/10 01:37:51;;;;;;;16.97;4.07;;;12.80;99.90;;;;;;4966491;28;20643;-77
2023/12/10 01:40:17;;;;;;;14.70;3.30;;;12.80;99.90;;;;;;4965488;28;20626;-77
2023/12/10 01:42:46;;;;;;;15.97;3.97;;;12.80;99.90;;;;;;4963882;28;20615;-77
2023/12/10 01:45:13;;;;;;;18.10;3.70;;;12.90;99.90;;;;;;4964956;28;20602;-77
2023/12/10 01:47:43;;;;;;;15.57;4.20;;;12.80;99.90;;;;;;4988902;28;20593;-77
2023/12/10 01:50:12;;;;;;;13.37;3.87;;;12.80;99.90;;;;;;4989413;28;20681;-77
2023/12/10 01:52:43;;;;;;;18.73;4.63;;;12.80;99.90;;;;;;4971697;28;20629;-77
2023/12/10 01:55:10;;;;;;;21.83;4.53;;;12.80;99.90;;;;;;4989440;28;20587;-77
2023/12/10 01:57:37;;;;;;;13.82;3.58;;;12.80;99.90;;;;;;4991480;28;20583;-77
2023/12/10 02:00:07;;;;;;;14.53;4.30;;;12.90;99.90;;;;;;5051396;28;20265;-77
2023/12/10 02:02:38;;;;;;;10.23;3.97;;;12.80;99.90;;;;;;4989761;28;20702;-77
2023/12/10 02:05:07;;;;;;;17.37;4.23;;;12.90;99.90;;;;;;4971796;28;20586;-77
2023/12/10 02:07:33;;;;;;;12.47;3.60;;;12.80;99.90;;;;;;4970192;28;20595;-77
2023/12/10 02:09:59;;;;;;;19.17;5.40;;;12.80;99.90;;;;;;4965324;28;21138;-77
2023/12/10 02:12:41;;;;;;;13.97;4.20;;;12.80;99.90;;;;;;4971683;28;20956;-77
2023/12/10 02:15:18;;;;;;;13.77;3.23;;;12.80;99.90;;;;;;4971796;28;20587;-78
2023/12/10 02:17:48;;;;;;;11.75;2.78;;;12.80;99.90;;;;;;4971303;28;20594;-77
2023/12/10 02:20:16;;;;;;;18.00;4.33;;;12.80;99.90;;;;;;4968295;28;20175;-77
2023/12/10 02:23:11;;;;;;;14.80;3.00;;;12.80;99.90;;;;;;4978445;28;20615;-77
2023/12/10 02:25:39;;;;;;;13.63;3.47;;;12.80;99.90;;;;;;4954237;28;20648;-77
2023/12/10 02:28:07;;;;;;;11.90;2.83;;;12.80;99.90;;;;;;4989090;28;20589;-77
2023/12/10 02:30:34;;;;;;;13.80;2.80;;;12.70;99.90;;;;;;4989356;28;20609;-77
2023/12/10 02:33:00;;;;;;;18.00;3.20;;;12.70;99.90;;;;;;4992373;28;20630;-77
2023/12/10 02:35:26;;;;;;;13.33;2.70;;;12.70;99.90;;;;;;4971190;28;20175;-77
2023/12/10 02:37:52;;;;;;;14.03;2.73;;;12.70;99.90;;;;;;4971219;28;20752;-77
2023/12/10 02:40:18;;;;;;;11.07;2.47;;;12.70;99.90;;;;;;4988694;28;20582;-77
2023/12/10 02:42:47;;;;;;;15.30;2.60;;;12.70;99.90;;;;;;4970570;28;20607;-77
2023/12/10 02:45:13;;;;;;;15.00;3.20;;;12.60;99.90;;;;;;4977354;28;20184;-76
2023/12/10 02:47:40;;;;;;;16.47;2.80;;;12.60;99.90;;;;;;4961307;28;20614;-76
2023/12/10 02:50:07;;;;;;;8.70;2.20;;;12.60;99.90;;;;;;4955367;28;20957;-77
2023/12/10 02:52:36;;;;;;;12.67;2.37;;;12.60;99.90;;;;;;5036230;28;20669;-77
2023/12/10 02:55:06;;;;;;;18.33;3.03;;;12.60;99.90;;;;;;4958062;28;20606;-77
2023/12/10 02:57:32;;;;;;;12.60;4.23;;;12.60;99.90;;;;;;4959721;28;21150;-77
2023/12/10 02:59:58;;;;;;;9.83;3.13;;;12.60;99.90;;;;;;5017529;28;21136;-77
2023/12/10 03:02:24;;;;;;;13.47;3.57;;;12.60;99.90;;;;;;4968247;28;20622;-77
2023/12/10 03:04:49;;;;;;;10.83;3.27;;;12.60;99.90;;;;;;4955384;28;20587;-77
2023/12/10 03:07:15;;;;;;;8.87;3.90;;;12.60;99.90;;;;;;4970935;28;20187;-77
2023/12/10 03:09:42;;;;;;;14.83;2.53;;;12.60;99.90;;;;;;4970573;28;20186;-77
2023/12/10 03:12:08;;;;;;;14.17;3.40;;;12.60;99.90;;;;;;5040611;28;20645;-77
2023/12/10 03:14:34;;;;;;;12.07;2.90;;;12.60;99.90;;;;;;4951343;28;20588;-77
2023/12/10 03:17:00;;;;;;;9.17;2.37;;;12.60;99.90;;;;;;4964156;28;20289;-77
2023/12/10 03:19:26;;;;;;;12.00;2.83;;;12.60;99.90;;;;;;4967171;28;20298;-77
2023/12/10 03:21:52;;;;;;;10.10;4.80;;;12.60;99.90;;;;;;4951401;28;20706;-78
2023/12/10 03:24:17;;;;;;;15.13;3.50;;;12.50;99.90;;;;;;4951265;28;20196;-78
2023/12/10 03:26:43;;;;;;;14.10;3.40;;;12.50;99.90;;;;;;4951358;28;20626;-77
2023/12/10 03:29:09;;;;;;;12.93;2.77;;;12.40;99.90;;;;;;4957231;28;20218;-78
2023/12/10 03:31:35;;;;;;;14.33;3.30;;;12.30;99.90;;;;;;4970418;28;20288;-77
2023/12/10 03:34:00;;;;;;;8.60;2.00;;;12.30;99.90;;;;;;4951271;28;20657;-77
2023/12/10 03:36:26;;;;;;;17.67;2.53;;;12.20;99.90;;;;;;4951179;28;20175;-77
2023/12/10 03:38:52;;;;;;;14.00;2.80;;;12.20;99.90;;;;;;4971920;28;20728;-77
2023/12/10 03:41:18;;;;;;;14.33;2.33;;;12.10;99.90;;;;;;4970776;28;20190;-77
2023/12/10 03:43:43;;;;;;;11.37;3.13;;;12.10;99.90;;;;;;4969010;28;20200;-77
2023/12/10 03:46:09;;;;;;;10.80;2.47;;;12.00;99.90;;;;;;4951231;28;20594;-77
2023/12/10 03:48:35;;;;;;;16.13;2.77;;;11.90;99.90;;;;;;4968153;28;20176;-77
2023/12/10 03:51:00;;;;;;;18.27;3.27;;;11.90;99.90;;;;;;4956183;28;20629;-78
2023/12/10 03:53:26;;;;;;;14.93;2.90;;;11.90;99.90;;;;;;4966880;28;20222;-78
2023/12/10 03:55:52;;;;;;;17.10;3.20;;;11.80;99.90;;;;;;4951071;28;20641;-78
2023/12/10 03:58:18;;;;;;;11.87;2.63;;;11.80;99.90;;;;;;4958931;28;20257;-78
2023/12/10 04:00:43;;;;;;;17.03;4.57;;;11.80;99.90;;;;;;4970590;28;20263;-79
2023/12/10 04:03:09;;;;;;;17.70;4.00;;;11.80;99.90;;;;;;4970344;28;20203;-78
2023/12/10 04:05:35;;;;;;;14.17;3.30;;;11.80;99.90;;;;;;4961517;28;20633;-78
2023/12/10 04:08:01;;;;;;;13.70;2.90;;;11.70;99.90;;;;;;4978404;28;20691;-78
2023/12/10 04:10:27;;;;;;;13.70;4.60;;;11.70;99.90;;;;;;4963468;28;20179;-78
2023/12/10 04:12:53;;;;;;;8.00;2.53;;;11.70;99.90;;;;;;4990759;28;20191;-78
2023/12/10 04:15:18;;;;;;;9.50;2.27;;;11.60;99.90;;;;;;4999134;28;20648;-78
2023/12/10 04:17:44;;;;;;;10.93;2.60;;;11.50;99.90;;;;;;4972489;28;20184;-78
2023/12/10 04:20:10;;;;;;;14.37;2.30;;;11.50;99.90;;;;;;4970308;28;20583;-78
2023/12/10 04:22:36;;;;;;;15.38;3.38;;;11.50;99.90;;;;;;4962017;28;20290;-78
2023/12/10 04:25:02;;;;;;;12.40;3.10;;;11.40;99.90;;;;;;4994113;28;20709;-78
2023/12/10 04:27:27;;;;;;;10.07;2.63;;;11.40;99.90;;;;;;4965280;28;20175;-78
2023/12/10 04:29:53;;;;;;;16.13;4.03;;;11.40;99.90;;;;;;4982528;28;20582;-78
2023/12/10 04:32:19;;;;;;;18.20;3.37;;;11.40;99.90;;;;;;4979630;28;20214;-79
2023/12/10 04:34:45;;;;;;;14.88;3.55;;;11.40;99.90;;;;;;4968391;28;20687;-79
2023/12/10 04:37:11;;;;;;;15.43;2.67;;;11.40;99.90;;;;;;4996356;28;20281;-79
2023/12/10 04:39:37;;;;;;;22.23;5.10;;;11.30;99.90;;;;;;4963760;28;20239;-78
2023/12/10 04:42:03;;;;;;;15.27;2.80;;;11.40;99.90;;;;;;4958220;28;20273;-79
2023/12/10 04:44:28;;;;;;;12.13;2.45;;;11.40;99.90;;;;;;4957040;28;20184;-79
2023/12/10 04:46:54;;;;;;;13.70;2.90;;;11.40;99.90;;;;;;4961659;28;20190;-78
2023/12/10 04:49:20;;;;;;;10.77;2.50;;;11.40;99.90;;;;;;4953639;28;20188;-78
2023/12/10 04:51:45;;;;;;;17.57;4.60;;;11.40;99.90;;;;;;4953359;28;20194;-78
2023/12/10 04:54:11;;;;;;;16.97;2.67;;;11.30;99.90;;;;;;4959406;28;20215;-78
2023/12/10 04:56:37;;;;;;;15.13;2.77;;;11.40;99.90;;;;;;4958383;28;20184;-78
2023/12/10 04:59:03;;;;;;;15.30;2.80;;;11.40;99.90;;;;;;4989727;28;20739;-78
2023/12/10 05:01:28;;;;;;;21.73;3.93;;;11.40;99.90;;;;;;4990626;28;20652;-78
2023/12/10 05:03:54;;;;;;;13.20;3.20;;;11.40;99.90;;;;;;4956912;28;20190;-78
2023/12/10 05:06:20;;;;;;;21.63;3.37;;;11.50;99.90;;;;;;5040889;28;20179;-78
2023/12/10 05:08:45;;;;;;;13.10;2.87;;;11.50;99.90;;;;;;4962257;28;20206;-78
2023/12/10 05:11:11;;;;;;;12.13;3.27;;;11.50;99.90;;;;;;4989685;28;20187;-78
2023/12/10 05:13:37;;;;;;;12.93;3.37;;;11.60;99.90;;;;;;4999626;28;20202;-78
2023/12/10 05:16:03;;;;;;;12.73;2.70;;;11.70;99.90;;;;;;4953290;28;20175;-78
2023/12/10 05:18:29;;;;;;;15.80;3.83;;;11.80;99.90;;;;;;4961066;28;20685;-79
2023/12/10 05:20:55;;;;;;;11.10;3.10;;;11.80;99.90;;;;;;4989873;28;20182;-78
2023/12/10 05:23:21;;;;;;;14.60;3.80;;;11.90;99.90;;;;;;4957230;28;20619;-78
2023/12/10 05:25:46;;;;;;;13.37;3.80;;;11.90;99.90;;;;;;4980501;28;20176;-79
2023/12/10 05:28:12;;;;;;;25.70;3.43;;;12.00;99.90;;;;;;4972230;28;20593;-79
2023/12/10 05:30:38;;;;;;;13.20;2.93;;;12.00;99.90;;;;;;4989579;28;20663;-78
2023/12/10 05:33:04;;;;;;;12.20;2.40;;;12.00;99.90;;;;;;4955753;28;20234;-78
2023/12/10 05:35:29;;;;;;;15.17;3.90;;;12.00;99.90;;;;;;4961185;28;20209;-78
2023/12/10 05:37:55;;;;;;;15.67;3.50;;;12.10;99.90;;;;;;4963920;28;20645;-78
2023/12/10 05:40:25;;;;;;;12.43;3.87;;;12.10;99.90;;;;;;4975474;28;20179;-78
2023/12/10 05:42:52;;;;;;;9.53;3.43;;;12.20;99.90;;;;;;4953277;28;20207;-78
2023/12/10 05:45:18;;;;;;;20.45;3.65;;;12.10;99.90;;;;;;4967051;28;20714;-78
2023/12/10 05:47:44;;;;;;;14.43;3.90;;;12.20;99.90;;;;;;4970457;28;20179;-78
2023/12/10 05:50:09;;;;;;;11.53;3.00;;;12.20;99.90;;;;;;4978261;28;20587;-79
2023/12/10 05:52:35;;;;;;;15.77;2.93;;;12.20;99.90;;;;;;4960869;28;20203;-78
2023/12/10 05:55:01;;;;;;;11.27;2.60;;;12.20;99.90;;;;;;4981354;28;20655;-78
2023/12/10 05:57:27;;;;;;;13.30;2.97;;;12.20;99.90;;;;;;4960746;28;20233;-78
2023/12/10 05:59:53;;;;;;;12.60;2.80;;;12.30;99.90;;;;;;4968377;28;20222;-78
2023/12/10 06:02:21;;;;;;;17.02;3.97;;;12.20;99.90;;;;;;4982036;28;20673;-78
2023/12/10 06:04:46;;;;;;;11.32;2.95;;;12.30;99.90;;;;;;4955455;28;20184;-79
2023/12/10 06:07:12;;;;;;;12.17;2.60;;;12.30;99.90;;;;;;4977915;28;20221;-79
2023/12/10 06:09:38;;;;;;;19.17;3.63;;;12.30;99.90;;;;;;4944952;28;20207;-78
2023/12/10 06:12:04;;;;;;;24.30;4.33;;;12.30;99.90;;;;;;4968250;28;20262;-78
2023/12/10 06:14:30;;;;;;;11.43;2.67;;;12.30;99.90;;;;;;4969625;28;20665;-79
2023/12/10 06:16:55;;;;;;;12.80;3.40;;;12.30;99.90;;;;;;4975354;28;20654;-79
2023/12/10 06:19:21;;;;;;;10.73;3.20;;;12.30;99.90;;;;;;4987630;28;20306;-78
2023/12/10 06:21:47;;;;;;;9.77;2.30;;;12.30;99.90;;;;;;4959906;28;20207;-78
2023/12/10 06:24:13;;;;;;;9.53;2.90;;;12.30;99.90;;;;;;4951268;28;20186;-78
2023/12/10 06:26:38;;;;;;;17.57;3.23;;;12.30;99.90;;;;;;4965125;28;20187;-79
2023/12/10 06:29:04;;;;;;;15.33;2.27;;;12.30;99.90;;;;;;4951988;28;20281;-78
2023/12/10 06:31:30;;;;;;;16.10;2.80;;;12.30;99.90;;;;;;4951893;28;20184;-78
2023/12/10 06:33:55;;;;;;;16.50;3.17;;;12.40;99.90;;;;;;4987541;28;20191;-79
2023/12/10 06:36:21;;;;;;;14.83;3.03;;;12.40;99.90;;;;;;5035868;28;20188;-79
2023/12/10 06:38:47;;;;;;;12.90;2.67;;;12.30;99.90;;;;;;4961239;28;20211;-78
2023/12/10 06:41:13;;;;;;;12.93;2.50;;;12.30;99.90;;;;;;4968444;28;20230;-78
2023/12/10 06:43:39;;;;;;;13.60;2.90;;;12.30;99.90;;;;;;4979087;28;20210;-78
2023/12/10 06:46:06;;;;;;;9.93;2.97;;;12.40;99.90;;;;;;4996971;28;20586;-78
2023/12/10 06:48:33;;;;;;;13.20;4.00;;;12.40;99.90;;;;;;4988937;28;20179;-78
2023/12/10 06:51:01;;;;;;;12.02;2.13;;;12.40;99.90;;;;;;4970416;28;20584;-84
2023/12/10 06:53:27;;;;;;;10.50;3.37;;;12.40;99.90;;;;;;4970457;28;20218;-84
2023/12/10 06:55:53;;;;;;;13.50;3.10;;;12.40;99.90;;;;;;4968009;28;20952;-83
2023/12/10 06:58:18;;;;;;;17.83;4.93;;;12.40;99.90;;;;;;4974389;28;20210;-78
2023/12/10 07:00:44;;;;;;;17.10;2.50;;;12.40;99.90;;;;;;5032438;28;20578;-78
2023/12/10 07:03:10;;;;;;;15.13;2.63;;;12.40;99.90;;;;;;5030844;28;20203;-78
2023/12/10 07:05:36;;;;;;;13.90;2.60;;;12.40;99.90;;;;;;5006592;28;20633;-79
2023/12/10 07:08:02;;;;;;;8.70;2.33;;;12.50;99.90;;;;;;4984413;28;20612;-79
2023/12/10 07:10:28;;;;;;;11.03;2.90;;;12.50;99.90;;;;;;5016080;28;20178;-79
2023/12/10 07:12:54;;;;;;;12.40;2.33;;;12.40;99.90;;;;;;4950266;28;20726;-79
2023/12/10 07:15:20;;;;;;;9.80;2.60;;;12.40;99.90;;;;;;4962746;28;20176;-79
2023/12/10 07:17:46;;;;;;;14.43;2.30;;;12.40;99.90;;;;;;4985364;28;20582;-79
2023/12/10 07:20:12;;;;;;;19.10;3.60;;;12.40;99.90;;;;;;4981841;28;20991;-79
2023/12/10 07:22:37;;;;;;;17.20;2.90;;;12.50;99.90;;;;;;4975887;28;21152;-79
2023/12/10 07:25:04;;;;;;;8.90;2.17;;;12.50;99.90;;;;;;4978008;28;20582;-79
2023/12/10 07:27:31;;;;;;;15.50;2.87;;;12.50;99.90;;;;;;4979156;28;20171;-79
2023/12/10 07:29:57;;;;;;;10.43;2.90;;;12.50;99.90;;;;;;4972246;28;20944;-79
2023/12/10 07:32:23;;;;;;;12.17;2.53;;;12.50;99.90;;;;;;4989819;28;20709;-79
2023/12/10 07:34:49;;;;;;;12.30;2.13;;;12.50;99.90;;;;;;5036913;28;20678;-79
2023/12/10 07:37:15;;;;;;;15.30;2.67;;;12.50;99.90;;;;;;4983456;28;20602;-79
2023/12/10 07:39:41;;;;;;;9.97;2.47;;;12.50;99.90;;;;;;4964723;28;20622;-78
2023/12/10 07:42:07;;;;;;;11.47;3.23;;;12.50;99.90;;;;;;4967046;28;20623;-78
2023/12/10 07:44:33;;;;;;;14.33;3.00;;;12.50;99.90;;;;;;4963576;28;20629;-79
2023/12/10 07:46:59;;;;;;;10.60;3.20;;;12.50;99.90;;;;;;4982830;28;20661;-78
2023/12/10 07:49:25;;;;;;;16.80;3.80;;;12.50;99.90;;;;;;4970198;28;20638;-78
2023/12/10 07:51:51;;;;;;;12.57;2.50;;;12.60;99.90;;;;;;4964827;28;20705;-79
2023/12/10 07:54:17;;;;;;;13.27;2.67;;;12.50;99.90;;;;;;4961441;28;20693;-78
2023/12/10 07:56:42;;;;;;;12.57;3.10;;;12.50;99.90;;;;;;4980382;28;20189;-78
2023/12/10 07:59:08;;;;;;;13.47;3.97;;;12.50;99.90;;;;;;5025688;28;20211;-78
2023/12/10 08:01:34;;;;;;;9.73;3.03;;;12.50;99.90;;;;;;4992829;28;20262;-79
2023/12/10 08:04:00;;;;;;;11.90;2.00;;;12.50;99.90;;;;;;5011082;28;20538;-79
2023/12/10 08:06:26;;;;;;;15.00;3.00;;;12.50;99.90;;;;;;5093889;28;20755;-79
2023/12/10 08:08:52;;;;;;;18.37;2.87;;;12.50;99.90;;;;;;4981404;28;20645;-79
2023/12/10 08:11:18;;;;;;;19.40;4.77;;;12.50;99.90;;;;;;4989385;28;20262;-78
2023/12/10 08:13:44;;;;;;;16.80;2.73;;;12.50;99.90;;;;;;4964903;28;20605;-81
2023/12/10 08:16:10;;;;;;;13.60;3.10;;;12.50;99.90;;;;;;5094200;28;20577;-77
2023/12/10 08:18:36;;;;;;;13.97;3.57;;;12.50;99.90;;;;;;5012252;28;21071;-78
2023/12/10 08:21:02;;;;;;;12.37;3.73;;;12.50;99.90;;;;;;4956464;28;20705;-78
2023/12/10 08:23:28;;;;;;;12.30;2.93;;;12.50;99.90;;;;;;4972883;28;20714;-78
2023/12/10 08:25:54;;;;;;;9.10;2.27;;;12.50;99.90;;;;;;4984443;28;20645;-78
2023/12/10 08:28:20;;;;;;;10.13;1.80;;;12.50;99.90;;;;;;4985381;28;20597;-77
2023/12/10 08:30:46;;;;;;;13.93;2.07;;;12.60;99.90;;;;;;4969918;28;20187;-77
2023/12/10 08:33:11;;;;;;;8.27;3.00;;;12.60;99.90;;;;;;4982450;28;20218;-79
2023/12/10 08:35:37;;;;;;;12.40;4.13;;;12.60;99.90;;;;;;4977892;28;20184;-77
2023/12/10 08:38:03;;;;;;;11.50;2.47;;;12.60;99.90;;;;;;4991951;28;20720;-78
2023/12/10 08:40:29;;;;;;;15.73;2.50;;;12.60;99.90;;;;;;4989613;28;20183;-77
2023/12/10 08:42:54;;;;;;;11.40;3.50;;;12.60;99.90;;;;;;4962835;28;20199;-78
2023/12/10 08:45:22;;;;;;;11.67;2.60;;;12.60;99.90;;;;;;5038265;28;20192;-77
2023/12/10 08:47:48;;;;;;;11.30;2.70;;;12.60;99.90;;;;;;4967111;28;20176;-77
2023/12/10 08:50:14;;;;;;;12.43;2.03;;;12.60;99.90;;;;;;4969525;28;20722;-77
2023/12/10 08:52:40;;;;;;;15.10;1.87;;;12.60;99.90;;;;;;5037688;28;20673;-77
2023/12/10 08:55:06;;;;;;;12.63;2.43;;;12.60;99.90;;;;;;4981856;28;20179;-77
2023/12/10 08:57:32;;;;;;;10.87;1.80;;;12.70;99.90;;;;;;4984335;28;20582;-77
2023/12/10 09:00:00;;;;;;;14.93;2.73;;;12.70;99.90;;;;;;4980462;28;20635;-77
2023/12/10 09:02:27;;;;;;;13.68;2.65;;;12.70;99.90;;;;;;4972716;28;20286;-77
2023/12/10 09:04:52;;;;;;;10.33;1.93;;;12.70;99.90;;;;;;4941223;28;20174;-77
2023/12/10 09:07:18;;;;;;;8.53;2.20;;;12.70;99.90;;;;;;4973073;28;20586;-77
2023/12/10 09:09:44;;;;;;;11.37;3.00;;;12.80;99.90;;;;;;4982384;28;20191;-77
2023/12/10 09:12:10;;;;;;;12.57;2.70;;;12.80;99.90;;;;;;4984804;28;20198;-77
2023/12/10 09:14:36;;;;;;;11.03;2.23;;;12.80;99.90;;;;;;5004177;28;20644;-83
2023/12/10 09:17:02;;;;;;;11.57;2.55;;;12.80;99.90;;;;;;4966919;28;20203;-84
2023/12/10 09:19:29;;;;;;;13.80;2.63;;;12.80;99.90;;;;;;4957431;28;20207;-83
2023/12/10 09:21:55;;;;;;;11.43;2.27;;;12.80;99.90;;;;;;5047379;28;20698;-78
2023/12/10 09:24:22;;;;;;;15.93;2.70;;;12.80;99.90;;;;;;4989663;28;21063;-79
2023/12/10 09:26:48;;;;;;;11.57;2.20;;;12.80;99.90;;;;;;4947147;28;20179;-79
2023/12/10 09:29:13;;;;;;;8.77;2.00;;;12.90;99.90;;;;;;4968669;28;21140;-78
2023/12/10 09:31:39;;;;;;;14.63;4.10;;;12.80;99.90;;;;;;4985850;28;20584;-79
2023/12/10 09:34:05;;;;;;;15.47;3.77;;;12.90;99.90;;;;;;4990523;28;20196;-79
2023/12/10 09:36:31;;;;;;;11.43;2.23;;;12.90;99.90;;;;;;4982115;28;20218;-79
2023/12/10 09:38:57;;;;;;;12.83;2.50;;;12.90;99.90;;;;;;4960796;28;20634;-78
2023/12/10 09:41:22;;;;;;;15.07;2.47;;;13.00;99.90;;;;;;4979332;28;20176;-79
2023/12/10 09:43:48;;;;;;;12.83;2.33;;;13.00;99.90;;;;;;4980553;28;20254;-79
2023/12/10 09:46:14;;;;;;;14.13;3.10;;;13.10;99.90;;;;;;4968669;28;20520;-79
2023/12/10 09:48:41;;;;;;;10.10;2.23;;;13.10;99.90;;;;;;4948686;28;20484;-79
2023/12/10 09:51:07;;;;;;;15.17;2.87;;;13.10;99.90;;;;;;4973247;28;20597;-78
2023/12/10 09:53:33;;;;;;;11.03;3.30;;;13.10;99.90;;;;;;4972686;28;20618;-79
2023/12/10 09:55:59;;;;;;;11.77;2.07;;;13.20;99.90;;;;;;4984860;28;20579;-78
2023/12/10 09:58:25;;;;;;;10.73;2.17;;;13.20;99.90;;;;;;4973166;28;20268;-79
2023/12/10 10:00:51;;;;;;;13.53;2.63;;;13.30;99.90;;;;;;5015908;28;20589;-80
2023/12/10 10:03:18;;;;;;;16.83;3.50;;;13.30;99.90;;;;;;5009067;28;20708;-81
2023/12/10 10:05:44;;;;;;;10.70;3.93;;;13.40;99.90;;;;;;5032981;28;20529;-80
2023/12/10 10:08:10;;;;;;;16.27;2.93;;;13.40;99.90;;;;;;5025246;28;20583;-79
2023/12/10 10:10:36;;;;;;;14.93;2.57;;;13.50;99.90;;;;;;4993208;28;20212;-79
2023/12/10 10:13:05;;;;;;;9.20;2.37;;;13.60;99.90;;;;;;4976832;28;20310;-79
2023/12/10 10:15:31;;;;;;;13.83;3.00;;;13.70;99.90;;;;;;4996112;28;20617;-79
2023/12/10 10:18:00;;;;;;;16.03;2.77;;;13.70;99.90;;;;;;5063933;28;20600;-80
2023/12/10 10:20:26;;;;;;;10.10;2.50;;;13.70;99.90;;;;;;4971553;28;20583;-79
2023/12/10 10:22:54;;;;;;;12.03;3.03;;;13.80;99.90;;;;;;4976908;28;20614;-79
2023/12/10 10:25:20;;;;;;;10.50;2.60;;;13.80;99.90;;;;;;4977651;28;20943;-79
2023/12/10 10:27:48;;;;;;;14.60;2.70;;;13.90;99.90;;;;;;4979119;28;20582;-79
2023/12/10 10:30:13;;;;;;;10.97;2.63;;;13.90;99.90;;;;;;4969481;28;20632;-79
2023/12/10 10:32:40;;;;;;;13.00;3.20;;;14.00;99.90;;;;;;4976306;28;20637;-80
2023/12/10 10:35:07;;;;;;;15.80;2.90;;;14.10;99.90;;;;;;4996715;28;20236;-80
2023/12/10 10:37:34;;;;;;;12.30;3.63;;;14.10;99.90;;;;;;4994547;28;20670;-79
2023/12/10 10:39:59;;;;;;;12.33;2.43;;;14.10;99.90;;;;;;4973593;28;20658;-80
2023/12/10 10:42:25;;;;;;;15.93;2.80;;;14.20;99.90;;;;;;5052348;28;20609;-79
2023/12/10 10:44:51;;;;;;;12.30;2.27;;;14.20;99.90;;;;;;5076980;28;20179;-80
2023/12/10 10:47:18;;;;;;;10.57;2.07;;;14.30;99.90;;;;;;4967566;28;20179;-79
2023/12/10 10:49:56;;;;;;;12.73;2.50;;;14.30;99.90;;;;;;4982270;28;20185;-79
2023/12/10 10:52:29;;;;;;;16.10;3.37;;;14.40;99.90;;;;;;4986005;28;20613;-78
2023/12/10 10:54:56;;;;;;;9.33;2.83;;;14.40;99.90;;;;;;4975312;28;21057;-79
2023/12/10 10:57:36;;;;;;;9.83;2.57;;;14.40;99.90;;;;;;4978854;28;20586;-78
2023/12/10 11:00:17;;;;;;;14.80;3.70;;;14.30;99.90;;;;;;4962883;28;20642;-78
2023/12/10 11:02:45;;;;;;;14.73;3.50;;;14.30;99.90;;;;;;4970880;28;20622;-78
2023/12/10 11:05:13;;;;;;;18.13;4.00;;;14.30;99.90;;;;;;5016607;28;20594;-79
2023/12/10 11:07:40;;;;;;;11.73;3.27;;;14.20;99.90;;;;;;5014105;28;20596;-80
2023/12/10 11:10:07;;;;;;;9.23;2.53;;;14.10;99.90;;;;;;5050595;28;20597;-80
2023/12/10 11:12:43;;;;;;;15.33;3.57;;;14.10;99.90;;;;;;4992869;28;20603;-80
2023/12/10 11:15:18;;;;;;;13.10;2.90;;;14.10;99.90;;;;;;4981237;28;20619;-80
2023/12/10 11:18:00;;;;;;;11.33;3.50;;;14.10;99.90;;;;;;4983137;28;20662;-80
2023/12/10 11:20:44;;;;;;;11.60;2.50;;;14.10;99.90;;;;;;4995166;28;20591;-79
2023/12/10 11:23:14;;;;;;;8.63;2.90;;;14.10;99.90;;;;;;4981743;28;20607;-79
2023/12/10 11:25:41;;;;;;;10.70;2.50;;;14.10;99.90;;;;;;4969064;28;20625;-79
2023/12/10 11:28:15;;;;;;;14.70;2.77;;;14.10;99.90;;;;;;4955462;28;21140;-79
2023/12/10 11:30:43;;;;;;;11.77;2.73;;;14.10;99.90;;;;;;4977424;28;20590;-79
2023/12/10 11:33:11;;;;;;;13.80;2.80;;;14.10;99.90;;;;;;4991511;28;20654;-77
2023/12/10 11:35:37;;;;;;;13.30;3.30;;;14.10;99.90;;;;;;4958036;28;20628;-77
2023/12/10 11:38:04;;;;;;;9.20;2.30;;;14.10;99.90;;;;;;4972210;28;20977;-77
2023/12/10 11:40:30;;;;;;;11.00;2.20;;;14.10;99.90;;;;;;4974300;28;20601;-77
2023/12/10 11:43:07;;;;;;;14.77;2.33;;;14.10;99.90;;;;;;4990707;28;20701;-77
2023/12/10 11:45:33;;;;;;;10.47;2.23;;;14.10;99.90;;;;;;4974430;28;21150;-77
2023/12/10 11:48:01;;;;;;;10.00;2.00;;;14.10;99.90;;;;;;4973846;28;20578;-77
2023/12/10 11:50:30;;;;;;;10.87;2.70;;;14.10;99.90;;;;;;4962085;28;20625;-77
2023/12/10 11:52:56;;;;;;;7.90;2.23;;;14.20;99.90;;;;;;4973412;28;20619;-76
2023/12/10 11:55:22;;;;;;;14.20;2.90;;;14.20;99.90;;;;;;4977374;28;20727;-77
2023/12/10 11:57:47;;;;;;;12.43;2.27;;;14.30;99.90;;;;;;4995458;28;20250;-77
2023/12/10 12:00:14;;;;;;;9.73;2.20;;;14.40;99.90;;;;;;4990860;28;20723;-77
2023/12/10 12:02:44;;;;;;;13.20;3.10;;;14.40;99.90;;;;;;4970216;28;20201;-77
2023/12/10 12:05:12;;;;;;;11.03;3.10;;;14.50;99.90;;;;;;4990027;28;20983;-77
2023/12/10 12:07:41;;;;;;;12.60;3.37;;;14.50;99.90;;;;;;4973608;28;20594;-77
2023/12/10 12:10:07;;;;;;;12.27;4.00;;;14.50;99.90;;;;;;4999144;28;20601;-78
2023/12/10 12:12:38;;;;;;;18.27;3.80;;;14.60;99.90;;;;;;4990452;28;20632;-77
2023/12/10 12:15:04;;;;;;;16.33;4.23;;;14.60;99.90;;;;;;4990813;28;20636;-77
2023/12/10 12:17:30;;;;;;;12.17;3.63;;;14.60;99.90;;;;;;4970223;28;20978;-78
2023/12/10 12:19:55;;;;;;;9.70;3.27;;;14.60;99.90;;;;;;4967184;28;20631;-77
2023/12/10 12:22:21;;;;;;;12.67;3.33;;;14.60;99.90;;;;;;4964060;28;20566;-77
2023/12/10 12:24:47;;;;;;;17.37;3.00;;;14.60;99.90;;;;;;4969959;28;20539;-77
2023/12/10 12:27:12;;;;;;;10.40;2.20;;;14.70;99.90;;;;;;4970870;28;20183;-77
2023/12/10 12:29:38;;;;;;;12.87;2.67;;;14.70;99.90;;;;;;4973520;28;20194;-77
2023/12/10 12:32:05;;;;;;;12.60;2.93;;;14.70;99.90;;;;;;4970707;28;20773;-78
2023/12/10 12:34:31;;;;;;;13.20;2.57;;;14.80;99.90;;;;;;4990454;28;20269;-77